sensor_id;sensor_type;location;lat;lon;timestamp;temperature;humidity
39983;DHT22;25670;44.782;10.356;2022-11-03T00:01:41;14.30;99.90
39983;DHT22;25670;44.782;10.356;2022-11-03T00:04:11;14.30;99.90
39983;DHT22;25670;44.782;10.356;2022-11-03T00:06:39;14.20;99.90
39983;DHT22;25670;44.782;10.356;2022-11-03T00:09:08;14.20;99.90
39983;DHT22;25670;44.782;10.356;2022-11-03T00:11:36;14.20;99.90
39983;DHT22;25670;44.782;10.356;2022-11-03T00:14:03;14.20;99.90
39983;DHT22;25670;44.782;10.356;2022-11-03T00:16:31;14.10;99.90
39983;DHT22;25670;44.782;10.356;2022-11-03T00:18:58;14.10;99.90
39983;DHT22;25670;44.782;10.356;2022-11-03T00:21:24;14.20;99.90
39983;DHT22;25670;44.782;10.356;2022-11-03T00:23:50;14.20;99.90
39983;DHT22;25670;44.782;10.356;2022-11-03T00:26:22;14.30;99.90
39983;DHT22;25670;44.782;10.356;2022-11-03T00:28:51;14.30;99.90
39983;DHT22;25670;44.782;10.356;2022-11-03T00:31:20;14.30;99.90
39983;DHT22;25670;44.782;10.356;2022-11-03T00:33:47;14.30;99.90
39983;DHT22;25670;44.782;10.356;2022-11-03T00:36:17;14.20;99.90
39983;DHT22;25670;44.782;10.356;2022-11-03T00:38:45;14.20;99.90
39983;DHT22;25670;44.782;10.356;2022-11-03T00:41:12;14.20;99.90
39983;DHT22;25670;44.782;10.356;2022-11-03T00:43:39;14.10;99.90
39983;DHT22;25670;44.782;10.356;2022-11-03T00:46:07;14.20;99.90
39983;DHT22;25670;44.782;10.356;2022-11-03T00:48:35;14.20;99.90
39983;DHT22;25670;44.782;10.356;2022-11-03T00:53:51;14.30;99.90
39983;DHT22;25670;44.782;10.356;2022-11-03T00:58:49;14.30;99.90
39983;DHT22;25670;44.782;10.356;2022-11-03T01:01:20;14.30;99.90
39983;DHT22;25670;44.782;10.356;2022-11-03T01:03:51;14.20;99.90
39983;DHT22;25670;44.782;10.356;2022-11-03T01:06:41;14.30;99.90
39983;DHT22;25670;44.782;10.356;2022-11-03T01:14:22;14.30;99.90
39983;DHT22;25670;44.782;10.356;2022-11-03T01:16:49;14.30;99.90
39983;DHT22;25670;44.782;10.356;2022-11-03T01:19:15;14.30;99.90
39983;DHT22;25670;44.782;10.356;2022-11-03T01:21:42;14.40;99.90
39983;DHT22;25670;44.782;10.356;2022-11-03T01:24:09;14.40;99.90
39983;DHT22;25670;44.782;10.356;2022-11-03T01:26:35;14.30;99.90
39983;DHT22;25670;44.782;10.356;2022-11-03T01:29:01;14.20;99.90
39983;DHT22;25670;44.782;10.356;2022-11-03T01:31:28;14.20;99.90
39983;DHT22;25670;44.782;10.356;2022-11-03T01:33:56;14.20;99.90
39983;DHT22;25670;44.782;10.356;2022-11-03T01:36:23;14.10;99.90
39983;DHT22;25670;44.782;10.356;2022-11-03T01:38:49;14.10;99.90
39983;DHT22;25670;44.782;10.356;2022-11-03T01:41:21;14.20;99.90
39983;DHT22;25670;44.782;10.356;2022-11-03T01:52:23;14.20;99.90
39983;DHT22;25670;44.782;10.356;2022-11-03T01:55:03;14.20;99.90
39983;DHT22;25670;44.782;10.356;2022-11-03T01:57:40;14.30;99.90
39983;DHT22;25670;44.782;10.356;2022-11-03T02:00:09;14.20;99.90
39983;DHT22;25670;44.782;10.356;2022-11-03T02:02:42;14.20;99.90
39983;DHT22;25670;44.782;10.356;2022-11-03T02:05:10;14.30;99.90
39983;DHT22;25670;44.782;10.356;2022-11-03T02:07:43;14.30;99.90
39983;DHT22;25670;44.782;10.356;2022-11-03T02:10:11;14.30;99.90
39983;DHT22;25670;44.782;10.356;2022-11-03T02:12:38;14.30;99.90
39983;DHT22;25670;44.782;10.356;2022-11-03T02:15:07;14.30;99.90
39983;DHT22;25670;44.782;10.356;2022-11-03T02:17:35;14.30;99.90
39983;DHT22;25670;44.782;10.356;2022-11-03T02:25:50;14.30;99.90
39983;DHT22;25670;44.782;10.356;2022-11-03T02:28:44;14.30;99.90
39983;DHT22;25670;44.782;10.356;2022-11-03T02:31:13;14.30;99.90
39983;DHT22;25670;44.782;10.356;2022-11-03T02:33:48;14.30;99.90
39983;DHT22;25670;44.782;10.356;2022-11-03T02:36:28;14.30;99.90
39983;DHT22;25670;44.782;10.356;2022-11-03T02:39:19;14.30;99.90
39983;DHT22;25670;44.782;10.356;2022-11-03T02:41:49;14.30;99.90
39983;DHT22;25670;44.782;10.356;2022-11-03T02:44:18;14.30;99.90
39983;DHT22;25670;44.782;10.356;2022-11-03T02:46:49;14.30;99.90
39983;DHT22;25670;44.782;10.356;2022-11-03T02:49:17;14.30;99.90
39983;DHT22;25670;44.782;10.356;2022-11-03T02:51:43;14.20;99.90
39983;DHT22;25670;44.782;10.356;2022-11-03T02:54:19;14.30;99.90
39983;DHT22;25670;44.782;10.356;2022-11-03T02:57:30;14.30;99.90
39983;DHT22;25670;44.782;10.356;2022-11-03T03:00:00;14.30;99.90
39983;DHT22;25670;44.782;10.356;2022-11-03T03:02:32;14.20;99.90
39983;DHT22;25670;44.782;10.356;2022-11-03T03:05:02;14.20;99.90
39983;DHT22;25670;44.782;10.356;2022-11-03T03:07:35;14.20;99.90
39983;DHT22;25670;44.782;10.356;2022-11-03T03:10:17;14.20;99.90
39983;DHT22;25670;44.782;10.356;2022-11-03T03:12:53;14.20;99.90
39983;DHT22;25670;44.782;10.356;2022-11-03T03:15:35;14.20;99.90
39983;DHT22;25670;44.782;10.356;2022-11-03T03:18:36;14.20;99.90
39983;DHT22;25670;44.782;10.356;2022-11-03T03:21:01;14.30;99.90
39983;DHT22;25670;44.782;10.356;2022-11-03T03:23:33;14.40;99.90
39983;DHT22;25670;44.782;10.356;2022-11-03T03:28:55;14.40;99.90
39983;DHT22;25670;44.782;10.356;2022-11-03T03:31:25;14.40;99.90
39983;DHT22;25670;44.782;10.356;2022-11-03T03:33:53;14.50;99.90
39983;DHT22;25670;44.782;10.356;2022-11-03T03:36:22;14.50;99.90
39983;DHT22;25670;44.782;10.356;2022-11-03T03:38:57;14.50;99.90
39983;DHT22;25670;44.782;10.356;2022-11-03T03:41:27;14.50;99.90
39983;DHT22;25670;44.782;10.356;2022-11-03T03:44:03;14.50;99.90
39983;DHT22;25670;44.782;10.356;2022-11-03T03:46:35;14.60;99.90
39983;DHT22;25670;44.782;10.356;2022-11-03T03:49:03;14.50;99.90
39983;DHT22;25670;44.782;10.356;2022-11-03T03:51:32;14.50;99.90
39983;DHT22;25670;44.782;10.356;2022-11-03T03:53:59;14.50;99.90
39983;DHT22;25670;44.782;10.356;2022-11-03T03:59:05;14.40;99.90
39983;DHT22;25670;44.782;10.356;2022-11-03T04:01:38;14.40;99.90
39983;DHT22;25670;44.782;10.356;2022-11-03T04:04:06;14.40;99.90
39983;DHT22;25670;44.782;10.356;2022-11-03T04:06:32;14.50;99.90
39983;DHT22;25670;44.782;10.356;2022-11-03T04:08:59;14.50;99.90
39983;DHT22;25670;44.782;10.356;2022-11-03T04:11:25;14.40;99.90
39983;DHT22;25670;44.782;10.356;2022-11-03T04:14:10;14.40;99.90
39983;DHT22;25670;44.782;10.356;2022-11-03T04:16:54;14.40;99.90
39983;DHT22;25670;44.782;10.356;2022-11-03T04:19:39;14.40;99.90
39983;DHT22;25670;44.782;10.356;2022-11-03T04:22:28;14.30;99.90
39983;DHT22;25670;44.782;10.356;2022-11-03T04:24:57;14.30;99.90
39983;DHT22;25670;44.782;10.356;2022-11-03T04:27:38;14.20;99.90
39983;DHT22;25670;44.782;10.356;2022-11-03T04:30:16;14.20;99.90
39983;DHT22;25670;44.782;10.356;2022-11-03T04:32:44;14.20;99.90
39983;DHT22;25670;44.782;10.356;2022-11-03T04:35:22;14.30;99.90
39983;DHT22;25670;44.782;10.356;2022-11-03T04:37:54;14.20;99.90
39983;DHT22;25670;44.782;10.356;2022-11-03T04:40:22;14.20;99.90
39983;DHT22;25670;44.782;10.356;2022-11-03T04:42:48;14.20;99.90
39983;DHT22;25670;44.782;10.356;2022-11-03T04:45:29;14.20;99.90
39983;DHT22;25670;44.782;10.356;2022-11-03T04:47:57;13.70;99.90
39983;DHT22;25670;44.782;10.356;2022-11-03T04:50:27;14.20;99.90
39983;DHT22;25670;44.782;10.356;2022-11-03T04:52:55;14.10;99.90
39983;DHT22;25670;44.782;10.356;2022-11-03T04:55:23;14.10;99.90
39983;DHT22;25670;44.782;10.356;2022-11-03T04:57:57;14.10;99.90
39983;DHT22;25670;44.782;10.356;2022-11-03T05:00:25;14.10;99.90
39983;DHT22;25670;44.782;10.356;2022-11-03T05:02:52;14.20;99.90
39983;DHT22;25670;44.782;10.356;2022-11-03T05:05:21;14.20;99.90
39983;DHT22;25670;44.782;10.356;2022-11-03T05:07:50;14.20;99.90
39983;DHT22;25670;44.782;10.356;2022-11-03T05:10:19;14.20;99.90
39983;DHT22;25670;44.782;10.356;2022-11-03T05:12:47;14.10;99.90
39983;DHT22;25670;44.782;10.356;2022-11-03T05:17:56;14.10;99.90
39983;DHT22;25670;44.782;10.356;2022-11-03T05:20:34;14.20;99.90
39983;DHT22;25670;44.782;10.356;2022-11-03T05:23:02;14.20;99.90
39983;DHT22;25670;44.782;10.356;2022-11-03T05:25:44;14.20;99.90
39983;DHT22;25670;44.782;10.356;2022-11-03T05:28:25;14.10;99.90
39983;DHT22;25670;44.782;10.356;2022-11-03T05:30:52;14.10;99.90
39983;DHT22;25670;44.782;10.356;2022-11-03T05:33:35;14.10;99.90
39983;DHT22;25670;44.782;10.356;2022-11-03T05:36:13;14.00;99.90
39983;DHT22;25670;44.782;10.356;2022-11-03T05:38:41;14.00;99.90
39983;DHT22;25670;44.782;10.356;2022-11-03T05:41:18;14.00;99.90
39983;DHT22;25670;44.782;10.356;2022-11-03T05:43:55;14.10;99.90
39983;DHT22;25670;44.782;10.356;2022-11-03T05:46:22;14.10;99.90
39983;DHT22;25670;44.782;10.356;2022-11-03T05:48:49;14.10;99.90
39983;DHT22;25670;44.782;10.356;2022-11-03T05:51:20;14.10;99.90
39983;DHT22;25670;44.782;10.356;2022-11-03T05:53:52;14.10;99.90
39983;DHT22;25670;44.782;10.356;2022-11-03T05:56:21;14.10;99.90
39983;DHT22;25670;44.782;10.356;2022-11-03T05:58:50;14.10;99.90
39983;DHT22;25670;44.782;10.356;2022-11-03T06:01:33;14.10;99.90
39983;DHT22;25670;44.782;10.356;2022-11-03T06:04:13;14.10;99.90
39983;DHT22;25670;44.782;10.356;2022-11-03T06:06:40;14.10;99.90
39983;DHT22;25670;44.782;10.356;2022-11-03T06:09:13;14.10;99.90
39983;DHT22;25670;44.782;10.356;2022-11-03T06:11:41;14.10;99.90
39983;DHT22;25670;44.782;10.356;2022-11-03T06:14:17;14.10;99.90
39983;DHT22;25670;44.782;10.356;2022-11-03T06:17:09;14.10;99.90
39983;DHT22;25670;44.782;10.356;2022-11-03T06:19:38;14.10;99.90
39983;DHT22;25670;44.782;10.356;2022-11-03T06:22:30;14.10;99.90
39983;DHT22;25670;44.782;10.356;2022-11-03T06:25:29;14.10;99.90
39983;DHT22;25670;44.782;10.356;2022-11-03T06:28:02;14.10;99.90
39983;DHT22;25670;44.782;10.356;2022-11-03T06:30:32;14.10;99.90
39983;DHT22;25670;44.782;10.356;2022-11-03T06:33:03;14.10;99.90
39983;DHT22;25670;44.782;10.356;2022-11-03T06:35:32;14.20;99.90
39983;DHT22;25670;44.782;10.356;2022-11-03T06:38:00;14.20;99.90
39983;DHT22;25670;44.782;10.356;2022-11-03T06:40:35;14.10;99.90
39983;DHT22;25670;44.782;10.356;2022-11-03T06:43:19;14.10;99.90
39983;DHT22;25670;44.782;10.356;2022-11-03T06:46:13;14.10;99.90
39983;DHT22;25670;44.782;10.356;2022-11-03T06:48:43;14.20;99.90
39983;DHT22;25670;44.782;10.356;2022-11-03T06:51:21;14.20;99.90
39983;DHT22;25670;44.782;10.356;2022-11-03T06:53:50;14.20;99.90
39983;DHT22;25670;44.782;10.356;2022-11-03T06:56:35;14.20;99.90
39983;DHT22;25670;44.782;10.356;2022-11-03T06:59:02;14.30;99.90
39983;DHT22;25670;44.782;10.356;2022-11-03T07:01:32;14.30;99.90
39983;DHT22;25670;44.782;10.356;2022-11-03T07:04:02;14.30;99.90
39983;DHT22;25670;44.782;10.356;2022-11-03T07:06:33;14.40;99.90
39983;DHT22;25670;44.782;10.356;2022-11-03T07:09:02;14.50;99.90
39983;DHT22;25670;44.782;10.356;2022-11-03T07:11:33;14.50;99.90
39983;DHT22;25670;44.782;10.356;2022-11-03T07:14:11;14.60;99.90
39983;DHT22;25670;44.782;10.356;2022-11-03T07:19:35;14.60;99.90
39983;DHT22;25670;44.782;10.356;2022-11-03T07:22:03;14.60;99.90
39983;DHT22;25670;44.782;10.356;2022-11-03T07:24:39;14.70;99.90
39983;DHT22;25670;44.782;10.356;2022-11-03T07:27:37;14.70;99.90
39983;DHT22;25670;44.782;10.356;2022-11-03T07:30:23;14.70;99.90
39983;DHT22;25670;44.782;10.356;2022-11-03T07:32:53;14.80;99.90
39983;DHT22;25670;44.782;10.356;2022-11-03T07:35:32;14.80;99.90
39983;DHT22;25670;44.782;10.356;2022-11-03T07:38:12;14.80;99.90
39983;DHT22;25670;44.782;10.356;2022-11-03T07:40:39;14.80;99.90
39983;DHT22;25670;44.782;10.356;2022-11-03T07:43:18;14.90;99.90
39983;DHT22;25670;44.782;10.356;2022-11-03T07:45:48;14.90;99.90
39983;DHT22;25670;44.782;10.356;2022-11-03T07:48:55;15.00;99.90
39983;DHT22;25670;44.782;10.356;2022-11-03T07:54:36;15.10;99.90
39983;DHT22;25670;44.782;10.356;2022-11-03T07:57:21;15.10;99.90
39983;DHT22;25670;44.782;10.356;2022-11-03T07:59:57;15.10;99.90
39983;DHT22;25670;44.782;10.356;2022-11-03T08:04:50;15.30;99.90
39983;DHT22;25670;44.782;10.356;2022-11-03T08:07:16;15.30;99.90
39983;DHT22;25670;44.782;10.356;2022-11-03T08:09:43;15.20;99.90
39983;DHT22;25670;44.782;10.356;2022-11-03T08:12:09;15.20;99.90
39983;DHT22;25670;44.782;10.356;2022-11-03T08:14:35;15.20;99.90
39983;DHT22;25670;44.782;10.356;2022-11-03T08:17:03;15.20;99.90
39983;DHT22;25670;44.782;10.356;2022-11-03T08:19:30;15.20;99.90
39983;DHT22;25670;44.782;10.356;2022-11-03T08:21:56;15.30;99.90
39983;DHT22;25670;44.782;10.356;2022-11-03T08:24:23;15.30;99.90
39983;DHT22;25670;44.782;10.356;2022-11-03T08:26:49;15.40;99.90
39983;DHT22;25670;44.782;10.356;2022-11-03T08:29:15;15.50;99.90
39983;DHT22;25670;44.782;10.356;2022-11-03T08:31:45;15.70;99.90
39983;DHT22;25670;44.782;10.356;2022-11-03T08:34:11;15.90;99.90
39983;DHT22;25670;44.782;10.356;2022-11-03T08:36:37;16.00;99.90
39983;DHT22;25670;44.782;10.356;2022-11-03T08:39:04;16.20;99.90
39983;DHT22;25670;44.782;10.356;2022-11-03T08:41:30;16.60;99.90
39983;DHT22;25670;44.782;10.356;2022-11-03T08:43:57;16.70;99.90
39983;DHT22;25670;44.782;10.356;2022-11-03T08:46:23;16.60;99.90
39983;DHT22;25670;44.782;10.356;2022-11-03T08:48:49;16.70;99.90
39983;DHT22;25670;44.782;10.356;2022-11-03T08:51:16;16.80;99.90
39983;DHT22;25670;44.782;10.356;2022-11-03T08:53:43;16.90;99.90
39983;DHT22;25670;44.782;10.356;2022-11-03T08:56:11;16.90;99.90
39983;DHT22;25670;44.782;10.356;2022-11-03T08:58:37;16.90;99.90
39983;DHT22;25670;44.782;10.356;2022-11-03T09:01:05;16.90;99.90
39983;DHT22;25670;44.782;10.356;2022-11-03T09:03:31;16.80;99.90
39983;DHT22;25670;44.782;10.356;2022-11-03T09:05:57;16.80;99.90
39983;DHT22;25670;44.782;10.356;2022-11-03T09:08:23;17.00;99.90
39983;DHT22;25670;44.782;10.356;2022-11-03T09:10:49;17.00;99.90
39983;DHT22;25670;44.782;10.356;2022-11-03T09:13:16;17.10;99.90
39983;DHT22;25670;44.782;10.356;2022-11-03T09:15:42;17.10;99.90
39983;DHT22;25670;44.782;10.356;2022-11-03T09:18:09;17.10;99.90
39983;DHT22;25670;44.782;10.356;2022-11-03T09:20:35;17.10;99.90
39983;DHT22;25670;44.782;10.356;2022-11-03T09:23:02;17.20;99.90
39983;DHT22;25670;44.782;10.356;2022-11-03T09:25:28;17.20;99.90
39983;DHT22;25670;44.782;10.356;2022-11-03T09:27:54;17.30;99.90
39983;DHT22;25670;44.782;10.356;2022-11-03T09:30:20;17.40;99.90
39983;DHT22;25670;44.782;10.356;2022-11-03T09:32:47;17.60;99.90
39983;DHT22;25670;44.782;10.356;2022-11-03T09:35:13;17.60;99.90
39983;DHT22;25670;44.782;10.356;2022-11-03T09:37:40;17.80;99.90
39983;DHT22;25670;44.782;10.356;2022-11-03T09:40:07;17.50;99.90
39983;DHT22;25670;44.782;10.356;2022-11-03T09:42:36;17.50;99.90
39983;DHT22;25670;44.782;10.356;2022-11-03T09:45:05;17.50;99.90
39983;DHT22;25670;44.782;10.356;2022-11-03T09:47:35;17.50;99.90
39983;DHT22;25670;44.782;10.356;2022-11-03T09:50:02;17.50;99.90
39983;DHT22;25670;44.782;10.356;2022-11-03T09:52:30;17.50;99.90
39983;DHT22;25670;44.782;10.356;2022-11-03T09:54:56;17.60;99.90
39983;DHT22;25670;44.782;10.356;2022-11-03T09:57:26;17.40;99.90
39983;DHT22;25670;44.782;10.356;2022-11-03T09:59:53;17.40;99.90
39983;DHT22;25670;44.782;10.356;2022-11-03T10:02:26;17.30;99.90
39983;DHT22;25670;44.782;10.356;2022-11-03T10:04:55;17.40;99.90
39983;DHT22;25670;44.782;10.356;2022-11-03T10:07:22;17.40;99.90
39983;DHT22;25670;44.782;10.356;2022-11-03T10:09:51;17.30;99.90
39983;DHT22;25670;44.782;10.356;2022-11-03T10:12:18;17.10;99.90
39983;DHT22;25670;44.782;10.356;2022-11-03T10:14:45;17.10;99.90
39983;DHT22;25670;44.782;10.356;2022-11-03T10:17:24;17.00;99.90
39983;DHT22;25670;44.782;10.356;2022-11-03T10:19:52;17.10;99.90
39983;DHT22;25670;44.782;10.356;2022-11-03T10:22:21;15.90;99.90
39983;DHT22;25670;44.782;10.356;2022-11-03T10:24:47;17.30;99.90
39983;DHT22;25670;44.782;10.356;2022-11-03T10:27:22;17.40;99.90
39983;DHT22;25670;44.782;10.356;2022-11-03T10:30:10;17.50;99.90
39983;DHT22;25670;44.782;10.356;2022-11-03T10:32:37;17.60;99.90
39983;DHT22;25670;44.782;10.356;2022-11-03T10:35:33;17.50;99.90
39983;DHT22;25670;44.782;10.356;2022-11-03T10:38:26;17.50;99.90
39983;DHT22;25670;44.782;10.356;2022-11-03T10:40:54;17.50;99.90
39983;DHT22;25670;44.782;10.356;2022-11-03T10:43:20;17.60;99.90
39983;DHT22;25670;44.782;10.356;2022-11-03T10:45:46;17.70;99.90
39983;DHT22;25670;44.782;10.356;2022-11-03T10:48:14;17.80;99.90
39983;DHT22;25670;44.782;10.356;2022-11-03T10:50:41;17.80;99.90
39983;DHT22;25670;44.782;10.356;2022-11-03T10:53:19;17.90;99.90
39983;DHT22;25670;44.782;10.356;2022-11-03T10:55:45;17.90;99.90
39983;DHT22;25670;44.782;10.356;2022-11-03T10:58:12;17.80;99.90
39983;DHT22;25670;44.782;10.356;2022-11-03T11:00:40;17.80;99.90
39983;DHT22;25670;44.782;10.356;2022-11-03T11:03:07;17.80;99.90
39983;DHT22;25670;44.782;10.356;2022-11-03T11:05:34;16.70;99.90
39983;DHT22;25670;44.782;10.356;2022-11-03T11:08:00;17.40;99.90
39983;DHT22;25670;44.782;10.356;2022-11-03T11:10:29;17.40;99.90
39983;DHT22;25670;44.782;10.356;2022-11-03T11:15:48;17.40;99.90
39983;DHT22;25670;44.782;10.356;2022-11-03T11:26:13;17.50;99.90
39983;DHT22;25670;44.782;10.356;2022-11-03T11:31:36;18.00;99.90
39983;DHT22;25670;44.782;10.356;2022-11-03T11:36:36;18.50;99.90
39983;DHT22;25670;44.782;10.356;2022-11-03T11:52:45;19.90;99.90
39983;DHT22;25670;44.782;10.356;2022-11-03T11:58:11;20.20;99.90
39983;DHT22;25670;44.782;10.356;2022-11-03T12:00:49;20.30;99.90
39983;DHT22;25670;44.782;10.356;2022-11-03T12:03:23;20.30;99.90
39983;DHT22;25670;44.782;10.356;2022-11-03T12:05:50;20.20;99.90
39983;DHT22;25670;44.782;10.356;2022-11-03T12:08:18;20.00;99.90
39983;DHT22;25670;44.782;10.356;2022-11-03T12:11:14;19.80;99.90
39983;DHT22;25670;44.782;10.356;2022-11-03T12:14:00;19.50;99.90
39983;DHT22;25670;44.782;10.356;2022-11-03T12:16:28;19.40;99.90
39983;DHT22;25670;44.782;10.356;2022-11-03T12:18:55;19.30;99.90
39983;DHT22;25670;44.782;10.356;2022-11-03T12:21:44;19.10;99.90
39983;DHT22;25670;44.782;10.356;2022-11-03T12:26:59;18.80;99.90
39983;DHT22;25670;44.782;10.356;2022-11-03T12:29:25;18.80;99.90
39983;DHT22;25670;44.782;10.356;2022-11-03T12:31:52;18.90;99.90
39983;DHT22;25670;44.782;10.356;2022-11-03T12:34:21;18.90;99.90
39983;DHT22;25670;44.782;10.356;2022-11-03T12:36:50;19.00;99.90
39983;DHT22;25670;44.782;10.356;2022-11-03T12:39:17;18.90;99.90
39983;DHT22;25670;44.782;10.356;2022-11-03T12:41:43;19.00;99.90
39983;DHT22;25670;44.782;10.356;2022-11-03T12:44:12;19.20;99.90
39983;DHT22;25670;44.782;10.356;2022-11-03T12:46:38;19.40;99.90
39983;DHT22;25670;44.782;10.356;2022-11-03T12:49:07;19.60;99.90
39983;DHT22;25670;44.782;10.356;2022-11-03T12:51:36;19.70;99.90
39983;DHT22;25670;44.782;10.356;2022-11-03T12:54:02;19.80;99.90
39983;DHT22;25670;44.782;10.356;2022-11-03T12:56:29;20.00;99.90
39983;DHT22;25670;44.782;10.356;2022-11-03T12:58:55;20.00;99.90
39983;DHT22;25670;44.782;10.356;2022-11-03T13:01:21;20.00;99.90
39983;DHT22;25670;44.782;10.356;2022-11-03T13:03:48;19.80;99.90
39983;DHT22;25670;44.782;10.356;2022-11-03T13:06:14;19.70;99.90
39983;DHT22;25670;44.782;10.356;2022-11-03T13:08:41;19.60;99.90
39983;DHT22;25670;44.782;10.356;2022-11-03T13:11:07;19.40;99.90
39983;DHT22;25670;44.782;10.356;2022-11-03T13:13:54;19.30;99.90
39983;DHT22;25670;44.782;10.356;2022-11-03T13:16:20;19.50;99.90
39983;DHT22;25670;44.782;10.356;2022-11-03T13:18:47;19.80;99.90
39983;DHT22;25670;44.782;10.356;2022-11-03T13:21:13;20.20;99.90
39983;DHT22;25670;44.782;10.356;2022-11-03T13:23:40;20.10;99.90
39983;DHT22;25670;44.782;10.356;2022-11-03T13:26:06;19.90;99.90
39983;DHT22;25670;44.782;10.356;2022-11-03T13:28:32;19.70;99.90
39983;DHT22;25670;44.782;10.356;2022-11-03T13:30:59;19.80;99.90
39983;DHT22;25670;44.782;10.356;2022-11-03T13:33:25;19.80;99.90
39983;DHT22;25670;44.782;10.356;2022-11-03T13:35:51;19.60;99.90
39983;DHT22;25670;44.782;10.356;2022-11-03T13:38:17;19.70;99.90
39983;DHT22;25670;44.782;10.356;2022-11-03T13:40:47;19.70;99.90
39983;DHT22;25670;44.782;10.356;2022-11-03T13:43:24;19.40;99.90
39983;DHT22;25670;44.782;10.356;2022-11-03T13:45:53;19.40;99.90
39983;DHT22;25670;44.782;10.356;2022-11-03T13:48:19;19.30;99.90
39983;DHT22;25670;44.782;10.356;2022-11-03T13:50:48;19.20;99.90
39983;DHT22;25670;44.782;10.356;2022-11-03T13:53:17;19.00;99.90
39983;DHT22;25670;44.782;10.356;2022-11-03T13:55:43;19.00;99.90
39983;DHT22;25670;44.782;10.356;2022-11-03T13:58:10;19.00;99.90
39983;DHT22;25670;44.782;10.356;2022-11-03T14:00:36;19.30;99.90
39983;DHT22;25670;44.782;10.356;2022-11-03T14:03:03;19.70;99.90
39983;DHT22;25670;44.782;10.356;2022-11-03T14:05:29;20.00;99.90
39983;DHT22;25670;44.782;10.356;2022-11-03T14:07:55;19.90;99.90
39983;DHT22;25670;44.782;10.356;2022-11-03T14:10:22;19.80;99.90
39983;DHT22;25670;44.782;10.356;2022-11-03T14:12:48;19.70;99.90
39983;DHT22;25670;44.782;10.356;2022-11-03T14:15:14;19.40;99.90
39983;DHT22;25670;44.782;10.356;2022-11-03T14:17:40;19.40;99.90
39983;DHT22;25670;44.782;10.356;2022-11-03T14:20:09;19.30;99.90
39983;DHT22;25670;44.782;10.356;2022-11-03T14:22:36;19.10;99.90
39983;DHT22;25670;44.782;10.356;2022-11-03T14:25:02;18.70;99.90
39983;DHT22;25670;44.782;10.356;2022-11-03T14:27:28;18.50;99.90
39983;DHT22;25670;44.782;10.356;2022-11-03T14:29:55;18.40;99.90
39983;DHT22;25670;44.782;10.356;2022-11-03T14:32:21;18.30;99.90
39983;DHT22;25670;44.782;10.356;2022-11-03T14:34:47;18.20;99.90
39983;DHT22;25670;44.782;10.356;2022-11-03T14:37:14;18.00;99.90
39983;DHT22;25670;44.782;10.356;2022-11-03T14:39:40;17.90;99.90
39983;DHT22;25670;44.782;10.356;2022-11-03T14:42:11;17.80;99.90
39983;DHT22;25670;44.782;10.356;2022-11-03T14:44:42;17.70;99.90
39983;DHT22;25670;44.782;10.356;2022-11-03T14:47:11;17.70;99.90
39983;DHT22;25670;44.782;10.356;2022-11-03T14:49:37;17.60;99.90
39983;DHT22;25670;44.782;10.356;2022-11-03T14:52:05;17.60;99.90
39983;DHT22;25670;44.782;10.356;2022-11-03T14:54:32;17.50;99.90
39983;DHT22;25670;44.782;10.356;2022-11-03T14:56:59;17.50;99.90
39983;DHT22;25670;44.782;10.356;2022-11-03T14:59:25;17.50;99.90
39983;DHT22;25670;44.782;10.356;2022-11-03T15:01:52;17.50;99.90
39983;DHT22;25670;44.782;10.356;2022-11-03T15:04:20;17.40;99.90
39983;DHT22;25670;44.782;10.356;2022-11-03T15:06:47;17.30;99.90
39983;DHT22;25670;44.782;10.356;2022-11-03T15:09:14;17.30;99.90
39983;DHT22;25670;44.782;10.356;2022-11-03T15:11:41;16.60;99.90
39983;DHT22;25670;44.782;10.356;2022-11-03T15:14:08;17.20;99.90
39983;DHT22;25670;44.782;10.356;2022-11-03T15:16:34;17.10;99.90
39983;DHT22;25670;44.782;10.356;2022-11-03T15:19:04;17.10;99.90
39983;DHT22;25670;44.782;10.356;2022-11-03T15:21:31;16.90;99.90
39983;DHT22;25670;44.782;10.356;2022-11-03T15:23:58;16.80;99.90
39983;DHT22;25670;44.782;10.356;2022-11-03T15:26:25;16.70;99.90
39983;DHT22;25670;44.782;10.356;2022-11-03T15:28:51;16.50;99.90
39983;DHT22;25670;44.782;10.356;2022-11-03T15:31:17;16.40;99.90
39983;DHT22;25670;44.782;10.356;2022-11-03T15:33:43;16.40;99.90
39983;DHT22;25670;44.782;10.356;2022-11-03T15:36:10;16.30;99.90
39983;DHT22;25670;44.782;10.356;2022-11-03T15:38:36;16.30;99.90
39983;DHT22;25670;44.782;10.356;2022-11-03T15:41:03;16.20;99.90
39983;DHT22;25670;44.782;10.356;2022-11-03T15:43:44;16.10;99.90
39983;DHT22;25670;44.782;10.356;2022-11-03T15:46:11;15.90;99.90
39983;DHT22;25670;44.782;10.356;2022-11-03T15:48:37;15.80;99.90
39983;DHT22;25670;44.782;10.356;2022-11-03T15:51:04;15.80;99.90
39983;DHT22;25670;44.782;10.356;2022-11-03T15:53:31;15.70;99.90
39983;DHT22;25670;44.782;10.356;2022-11-03T15:55:57;15.60;99.90
39983;DHT22;25670;44.782;10.356;2022-11-03T15:58:23;15.60;99.90
39983;DHT22;25670;44.782;10.356;2022-11-03T16:00:49;15.60;99.90
39983;DHT22;25670;44.782;10.356;2022-11-03T16:03:16;15.60;99.90
39983;DHT22;25670;44.782;10.356;2022-11-03T16:05:42;15.50;99.90
39983;DHT22;25670;44.782;10.356;2022-11-03T16:08:08;15.50;99.90
39983;DHT22;25670;44.782;10.356;2022-11-03T16:10:35;15.40;99.90
39983;DHT22;25670;44.782;10.356;2022-11-03T16:13:01;15.40;99.90
39983;DHT22;25670;44.782;10.356;2022-11-03T16:15:27;15.40;99.90
39983;DHT22;25670;44.782;10.356;2022-11-03T16:17:53;15.40;99.90
39983;DHT22;25670;44.782;10.356;2022-11-03T16:20:20;15.40;99.90
39983;DHT22;25670;44.782;10.356;2022-11-03T16:22:46;15.40;99.90
39983;DHT22;25670;44.782;10.356;2022-11-03T16:25:12;15.40;99.90
39983;DHT22;25670;44.782;10.356;2022-11-03T16:27:38;15.30;99.90
39983;DHT22;25670;44.782;10.356;2022-11-03T16:30:05;15.30;99.90
39983;DHT22;25670;44.782;10.356;2022-11-03T16:32:31;15.30;99.90
39983;DHT22;25670;44.782;10.356;2022-11-03T16:34:58;15.30;99.90
39983;DHT22;25670;44.782;10.356;2022-11-03T16:37:24;15.20;99.90
39983;DHT22;25670;44.782;10.356;2022-11-03T16:39:52;15.20;99.90
39983;DHT22;25670;44.782;10.356;2022-11-03T16:42:19;15.30;99.90
39983;DHT22;25670;44.782;10.356;2022-11-03T16:44:46;15.20;99.90
39983;DHT22;25670;44.782;10.356;2022-11-03T16:47:13;15.20;99.90
39983;DHT22;25670;44.782;10.356;2022-11-03T16:49:39;15.20;99.90
39983;DHT22;25670;44.782;10.356;2022-11-03T16:52:07;15.20;99.90